createdAt,value
2017-08-26T04:43:16.563Z,0.00
2017-08-26T04:44:16.557Z,5.63
2017-08-26T04:45:16.450Z,5.63
2017-08-26T04:46:16.443Z,5.63
2017-08-26T04:47:16.438Z,5.63
2017-08-26T04:48:16.429Z,5.63
2017-08-26T04:49:16.425Z,5.63
2017-08-26T04:50:16.520Z,5.63
2017-08-26T04:51:16.410Z,5.63
2017-08-26T04:52:16.404Z,5.63
2017-08-26T04:53:16.399Z,5.63
2017-08-26T04:54:16.398Z,11.25
2017-08-26T04:55:16.395Z,11.25
2017-08-26T04:56:16.481Z,11.25
2017-08-26T04:57:16.373Z,11.25
2017-08-26T04:58:16.368Z,11.25
2017-08-26T04:59:16.362Z,11.25
2017-08-26T05:00:16.355Z,11.25
2017-08-26T05:01:16.349Z,11.25
2017-08-26T05:02:16.443Z,11.25
2017-08-26T05:03:16.336Z,16.88
2017-08-26T05:04:16.331Z,16.88
2017-08-26T05:05:16.324Z,16.88
2017-08-26T05:06:16.320Z,16.88
2017-08-26T05:07:16.312Z,16.88
2017-08-26T05:08:16.405Z,16.88
2017-08-26T05:09:16.298Z,22.50
2017-08-26T05:10:16.293Z,22.50
2017-08-26T05:11:16.285Z,22.50
2017-08-26T05:12:16.279Z,22.50
2017-08-26T05:13:16.274Z,28.13
2017-08-26T05:14:16.368Z,28.13
2017-08-26T05:15:16.262Z,28.13
2017-08-26T05:16:16.253Z,28.13
2017-08-26T05:17:16.248Z,28.13
2017-08-26T05:18:16.242Z,28.13
2017-08-26T05:19:16.238Z,28.13
2017-08-26T05:20:16.329Z,28.13
2017-08-26T05:21:16.223Z,28.13
2017-08-26T05:22:16.218Z,28.13
2017-08-26T05:23:16.212Z,28.13
2017-08-26T05:24:16.305Z,28.13
2017-08-26T05:25:16.199Z,33.75
2017-08-26T05:26:16.193Z,33.75
2017-08-26T05:27:16.288Z,33.75
2017-08-26T05:28:16.182Z,33.75
2017-08-26T05:29:16.178Z,33.75
2017-08-26T05:30:16.171Z,33.75
2017-08-26T05:31:16.163Z,33.75
2017-08-26T05:32:16.156Z,39.38
2017-08-26T05:33:16.251Z,45.00
2017-08-26T05:34:16.146Z,50.63
2017-08-26T05:35:16.140Z,50.63
2017-08-26T05:36:16.133Z,50.63
2017-08-26T05:37:16.127Z,50.63
2017-08-26T05:38:16.123Z,50.63
2017-08-26T05:39:16.217Z,50.63
2017-08-26T05:40:16.112Z,50.63
2017-08-26T05:41:16.106Z,56.25
2017-08-26T05:42:16.099Z,56.25
2017-08-26T05:43:16.094Z,56.25
2017-08-26T05:44:16.087Z,50.63
2017-08-26T05:45:16.184Z,56.25
2017-08-26T05:46:16.087Z,56.25
2017-08-26T05:47:16.173Z,56.25
2017-08-26T05:48:16.066Z,61.88
2017-08-26T05:49:16.061Z,61.88
2017-08-26T05:50:16.055Z,67.50
2017-08-26T05:51:16.150Z,73.13
2017-08-26T05:52:16.045Z,84.38
2017-08-26T05:53:16.039Z,90.00
2017-08-26T05:54:16.034Z,84.38
2017-08-26T05:55:16.030Z,84.38
2017-08-26T05:56:16.024Z,84.38
2017-08-26T05:57:16.319Z,84.38
2017-08-26T05:58:16.014Z,90.00
2017-08-26T05:59:16.010Z,90.00
2017-08-26T06:00:16.004Z,78.75
2017-08-26T06:01:15.999Z,84.38
2017-08-26T06:02:15.994Z,90.00
2017-08-26T06:03:16.089Z,106.88
2017-08-26T06:04:15.984Z,101.25
2017-08-26T06:05:15.980Z,106.88
2017-08-26T06:06:15.975Z,118.13
2017-08-26T06:07:15.971Z,118.13
2017-08-26T06:08:15.966Z,118.13
2017-08-26T06:09:16.062Z,118.13
2017-08-26T06:10:15.960Z,112.50
2017-08-26T06:11:16.086Z,112.50
2017-08-26T06:12:15.948Z,101.25
2017-08-26T06:13:15.945Z,106.88
2017-08-26T06:14:15.940Z,123.75
2017-08-26T06:15:16.036Z,129.38
2017-08-26T06:16:15.931Z,151.88
2017-08-26T06:17:15.932Z,151.88
2017-08-26T06:18:15.922Z,146.25
2017-08-26T06:19:15.920Z,140.63
2017-08-26T06:20:15.915Z,129.38
2017-08-26T06:21:16.014Z,112.50
2017-08-26T06:22:15.908Z,123.75
2017-08-26T06:23:15.903Z,123.75
2017-08-26T06:24:15.905Z,123.75
2017-08-26T06:25:15.898Z,129.38
2017-08-26T06:26:15.893Z,118.13
2017-08-26T06:27:15.990Z,112.50
2017-08-26T06:28:15.886Z,123.75
2017-08-26T06:29:15.883Z,146.25
2017-08-26T06:30:15.879Z,146.25
2017-08-26T06:31:15.875Z,140.63
2017-08-26T06:32:15.871Z,151.88
2017-08-26T06:33:16.174Z,146.25
2017-08-26T06:34:15.880Z,151.88
2017-08-26T06:35:15.861Z,157.50
2017-08-26T06:36:15.857Z,168.75
2017-08-26T06:37:15.855Z,168.75
2017-08-26T06:38:15.855Z,174.38
2017-08-26T06:39:15.949Z,174.38
2017-08-26T06:40:15.844Z,185.63
2017-08-26T06:41:15.843Z,191.25
2017-08-26T06:42:15.939Z,202.50
2017-08-26T06:43:15.836Z,230.63
2017-08-26T06:44:15.832Z,247.50
2017-08-26T06:45:15.930Z,168.75
2017-08-26T06:46:15.828Z,163.13
2017-08-26T06:47:15.825Z,135.00
2017-08-26T06:48:15.822Z,146.25
2017-08-26T06:49:15.820Z,163.13
2017-08-26T06:50:15.819Z,219.38
2017-08-26T06:51:16.117Z,506.25
2017-08-26T06:52:15.814Z,911.25
2017-08-26T06:53:15.813Z,669.38
2017-08-26T06:54:15.811Z,309.38
2017-08-26T06:55:15.910Z,95.63
2017-08-26T06:56:15.808Z,84.38
2017-08-26T06:57:16.056Z,78.75
2017-08-26T06:58:15.805Z,78.75
2017-08-26T06:59:15.803Z,78.75
2017-08-26T07:00:15.799Z,78.75
2017-08-26T07:01:15.798Z,78.75
2017-08-26T07:02:15.798Z,84.38
2017-08-26T07:03:15.893Z,101.25
2017-08-26T07:04:15.792Z,157.50
2017-08-26T07:05:15.789Z,241.88
2017-08-26T07:06:15.788Z,180.00
2017-08-26T07:07:15.788Z,140.63
2017-08-26T07:08:15.784Z,118.13
2017-08-26T07:09:15.881Z,118.13
2017-08-26T07:10:15.779Z,112.50
2017-08-26T07:11:15.778Z,118.13
2017-08-26T07:12:15.775Z,118.13
2017-08-26T07:13:15.771Z,112.50
2017-08-26T07:14:15.770Z,112.50
2017-08-26T07:15:15.867Z,129.38
2017-08-26T07:16:15.865Z,230.63
2017-08-26T07:17:15.763Z,945.00
2017-08-26T07:18:15.760Z,1580.63
2017-08-26T07:19:15.758Z,1524.38
2017-08-26T07:20:15.755Z,2272.50
2017-08-26T07:21:15.854Z,2002.50
2017-08-26T07:22:15.753Z,1822.50
2017-08-26T07:23:15.754Z,1822.50
2017-08-26T07:24:15.751Z,2311.88
2017-08-26T07:25:15.753Z,2390.63
2017-08-26T07:26:15.754Z,2632.50
2017-08-26T07:27:15.856Z,2683.13
2017-08-26T07:28:15.853Z,2458.13
2017-08-26T07:29:15.758Z,1845.00
2017-08-26T07:30:15.760Z,1220.63
2017-08-26T07:31:15.763Z,703.13
2017-08-26T07:32:15.920Z,450.00
2017-08-26T07:33:15.870Z,444.38
2017-08-26T07:34:15.774Z,444.38
2017-08-26T07:35:15.779Z,450.00
2017-08-26T07:36:15.781Z,455.63
2017-08-26T07:37:15.786Z,410.63
2017-08-26T07:38:15.790Z,371.25
2017-08-26T07:39:15.896Z,421.88
2017-08-26T07:40:15.799Z,500.63
2017-08-26T07:41:15.805Z,478.13
2017-08-26T07:42:15.808Z,450.00
2017-08-26T07:43:15.812Z,433.13
2017-08-26T07:44:15.813Z,416.25
2017-08-26T07:45:15.921Z,405.00
2017-08-26T07:46:15.822Z,410.63
2017-08-26T07:47:15.826Z,393.75
2017-08-26T07:48:15.830Z,376.88
2017-08-26T07:49:15.831Z,365.63
2017-08-26T07:50:15.933Z,360.00
2017-08-26T07:51:15.936Z,360.00
2017-08-26T07:52:15.841Z,354.38
2017-08-26T07:53:15.842Z,365.63
2017-08-26T07:54:15.879Z,495.00
2017-08-26T07:55:15.849Z,298.13
2017-08-26T07:56:15.850Z,247.50
2017-08-26T07:57:15.951Z,258.75
2017-08-26T07:58:15.853Z,281.25
2017-08-26T07:59:15.855Z,275.63
2017-08-26T08:00:15.857Z,208.13
2017-08-26T08:01:15.959Z,230.63
2017-08-26T08:02:15.983Z,174.38
2017-08-26T08:03:15.964Z,180.00
2017-08-26T08:04:15.961Z,241.88
2017-08-26T08:05:15.963Z,241.88
2017-08-26T08:06:15.865Z,225.00
2017-08-26T08:07:15.922Z,202.50
2017-08-26T08:08:15.865Z,185.63
2017-08-26T08:09:15.867Z,180.00
2017-08-26T08:10:15.968Z,174.38
2017-08-26T08:11:15.869Z,168.75
2017-08-26T08:12:15.869Z,163.13
2017-08-26T08:13:15.970Z,157.50
2017-08-26T08:14:15.870Z,157.50
2017-08-26T08:15:15.876Z,157.50
2017-08-26T08:16:15.971Z,157.50
2017-08-26T08:17:15.871Z,163.13
2017-08-26T08:18:15.941Z,168.75
2017-08-26T08:19:15.872Z,168.75
2017-08-26T08:20:15.869Z,168.75
2017-08-26T08:21:15.869Z,180.00
2017-08-26T08:22:15.973Z,180.00
2017-08-26T08:23:15.871Z,174.38
2017-08-26T08:24:15.867Z,174.38
2017-08-26T08:25:15.868Z,163.13
2017-08-26T08:26:15.868Z,151.88
2017-08-26T08:27:15.866Z,146.25
2017-08-26T08:28:15.964Z,129.38
2017-08-26T08:29:15.866Z,118.13
2017-08-26T08:30:15.865Z,118.13
2017-08-26T08:31:15.865Z,123.75
2017-08-26T08:32:15.863Z,129.38
2017-08-26T08:33:15.962Z,135.00
2017-08-26T08:34:15.961Z,146.25
2017-08-26T08:35:15.861Z,157.50
2017-08-26T08:36:15.861Z,157.50
2017-08-26T08:37:15.860Z,151.88
2017-08-26T08:38:15.857Z,146.25
2017-08-26T08:39:15.957Z,151.88
2017-08-26T08:40:15.954Z,151.88
2017-08-26T08:41:15.857Z,140.63
2017-08-26T08:42:15.852Z,129.38
2017-08-26T08:43:15.851Z,123.75
2017-08-26T08:44:15.850Z,123.75
2017-08-26T08:45:15.850Z,123.75
2017-08-26T08:46:15.950Z,129.38
2017-08-26T08:47:15.984Z,157.50
2017-08-26T08:48:15.846Z,185.63
2017-08-26T08:49:15.845Z,185.63
2017-08-26T08:50:15.844Z,202.50
2017-08-26T08:51:15.843Z,196.88
2017-08-26T08:52:15.941Z,202.50
2017-08-26T08:53:15.841Z,236.25
2017-08-26T08:54:15.839Z,247.50
2017-08-26T08:55:15.838Z,258.75
2017-08-26T08:56:15.851Z,247.50
2017-08-26T08:57:15.837Z,241.88
2017-08-26T08:58:15.938Z,236.25
2017-08-26T08:59:15.835Z,230.63
2017-08-26T09:00:15.833Z,225.00
2017-08-26T09:01:15.832Z,219.38
2017-08-26T09:02:15.832Z,213.75
2017-08-26T09:03:15.831Z,213.75
2017-08-26T09:04:15.931Z,213.75
2017-08-26T09:05:15.839Z,213.75
2017-08-26T09:06:15.928Z,213.75
2017-08-26T09:07:15.829Z,208.13
2017-08-26T09:08:15.826Z,202.50
2017-08-26T09:09:15.826Z,202.50
2017-08-26T09:10:15.926Z,202.50
2017-08-26T09:11:15.825Z,202.50
2017-08-26T09:12:15.828Z,202.50
2017-08-26T09:13:15.825Z,202.50
2017-08-26T09:14:15.825Z,196.88
2017-08-26T09:15:15.825Z,196.88
2017-08-26T09:16:15.923Z,196.88
2017-08-26T09:17:15.824Z,191.25
2017-08-26T09:18:15.827Z,196.88
2017-08-26T09:19:15.824Z,196.88
2017-08-26T09:20:15.823Z,196.88
2017-08-26T09:21:15.823Z,196.88
2017-08-26T09:22:15.926Z,196.88
2017-08-26T09:23:15.824Z,196.88
2017-08-26T09:24:15.824Z,196.88
2017-08-26T09:25:15.824Z,185.63
2017-08-26T09:26:15.827Z,174.38
2017-08-26T09:27:15.825Z,168.75
2017-08-26T09:28:15.932Z,191.25
2017-08-26T09:29:15.826Z,185.63
2017-08-26T09:30:15.825Z,180.00
2017-08-26T09:31:15.827Z,174.38
2017-08-26T09:32:15.925Z,196.88
2017-08-26T09:33:15.825Z,202.50
2017-08-26T09:34:15.926Z,202.50
2017-08-26T09:35:15.827Z,196.88
2017-08-26T09:36:15.827Z,196.88
2017-08-26T09:37:15.826Z,196.88
2017-08-26T09:38:15.827Z,196.88
2017-08-26T09:39:15.827Z,191.25
2017-08-26T09:40:15.925Z,191.25
2017-08-26T09:41:15.825Z,185.63
2017-08-26T09:42:15.928Z,185.63
2017-08-26T09:43:15.841Z,191.25
2017-08-26T09:44:15.827Z,180.00
2017-08-26T09:45:15.826Z,185.63
2017-08-26T09:46:15.929Z,180.00
2017-08-26T09:47:15.828Z,174.38
2017-08-26T09:48:15.928Z,180.00
2017-08-26T09:49:15.828Z,180.00
2017-08-26T09:50:15.829Z,180.00
2017-08-26T09:51:15.832Z,180.00
2017-08-26T09:52:15.930Z,180.00
2017-08-26T09:53:15.830Z,180.00
2017-08-26T09:54:15.831Z,180.00
2017-08-26T09:55:15.832Z,180.00
2017-08-26T09:56:15.829Z,180.00
2017-08-26T09:57:15.833Z,180.00
2017-08-26T09:58:15.933Z,180.00
2017-08-26T09:59:15.932Z,174.38
2017-08-26T10:00:15.832Z,174.38
2017-08-26T10:01:15.833Z,174.38
2017-08-26T10:02:15.834Z,174.38
2017-08-26T10:03:15.835Z,174.38
2017-08-26T10:04:15.833Z,174.38
2017-08-26T10:05:15.940Z,174.38
2017-08-26T10:06:15.835Z,174.38
2017-08-26T10:07:15.837Z,174.38
2017-08-26T10:08:15.837Z,174.38
2017-08-26T10:09:15.838Z,174.38
2017-08-26T10:10:15.840Z,174.38
2017-08-26T10:11:15.941Z,174.38
2017-08-26T10:12:15.870Z,174.38
2017-08-26T10:13:15.842Z,174.38
2017-08-26T10:14:15.843Z,174.38
2017-08-26T10:15:15.846Z,174.38
2017-08-26T10:16:15.845Z,174.38
2017-08-26T10:17:15.946Z,174.38
2017-08-26T10:18:15.949Z,180.00
2017-08-26T10:19:15.860Z,180.00
2017-08-26T10:20:16.050Z,180.00
2017-08-26T10:21:15.851Z,191.25
2017-08-26T10:22:15.853Z,185.63
2017-08-26T10:23:15.853Z,191.25
2017-08-26T10:24:16.110Z,191.25
2017-08-26T10:25:15.855Z,196.88
2017-08-26T10:26:15.857Z,202.50
2017-08-26T10:27:15.859Z,208.13
2017-08-26T10:28:15.859Z,208.13
2017-08-26T10:29:15.861Z,208.13
2017-08-26T10:30:15.962Z,208.13
2017-08-26T10:31:15.864Z,213.75
2017-08-26T10:32:15.866Z,219.38
2017-08-26T10:33:15.867Z,230.63
2017-08-26T10:34:15.866Z,230.63
2017-08-26T10:35:15.869Z,236.25
2017-08-26T10:36:15.970Z,236.25
2017-08-26T10:37:15.873Z,236.25
2017-08-26T10:38:15.873Z,236.25
2017-08-26T10:39:15.875Z,236.25
2017-08-26T10:40:15.876Z,230.63
2017-08-26T10:41:15.875Z,230.63
2017-08-26T10:42:15.980Z,219.38
2017-08-26T10:43:15.880Z,236.25
2017-08-26T10:44:15.882Z,230.63
2017-08-26T10:45:15.886Z,236.25
2017-08-26T10:46:15.885Z,230.63
2017-08-26T10:47:15.887Z,230.63
2017-08-26T10:48:15.990Z,208.13
2017-08-26T10:49:15.889Z,196.88
2017-08-26T10:50:15.892Z,185.63
2017-08-26T10:51:15.893Z,213.75
2017-08-26T10:52:15.893Z,202.50
2017-08-26T10:53:15.895Z,213.75
2017-08-26T10:54:16.002Z,202.50
2017-08-26T10:55:15.898Z,213.75
2017-08-26T10:56:15.906Z,213.75
2017-08-26T10:57:15.903Z,208.13
2017-08-26T10:58:15.903Z,202.50
2017-08-26T10:59:16.043Z,202.50
2017-08-26T11:00:16.006Z,196.88
2017-08-26T11:01:15.907Z,196.88
2017-08-26T11:02:15.965Z,196.88
2017-08-26T11:03:15.913Z,202.50
2017-08-26T11:04:15.912Z,196.88
2017-08-26T11:05:15.913Z,191.25
2017-08-26T11:06:16.217Z,163.13
2017-08-26T11:07:15.918Z,151.88
2017-08-26T11:08:15.919Z,163.13
2017-08-26T11:09:16.022Z,185.63
2017-08-26T11:10:15.924Z,191.25
2017-08-26T11:11:15.923Z,196.88
2017-08-26T11:12:16.026Z,202.50
2017-08-26T11:13:15.926Z,202.50
2017-08-26T11:14:15.929Z,208.13
2017-08-26T11:15:15.931Z,208.13
2017-08-26T11:16:15.931Z,213.75
2017-08-26T11:17:15.933Z,213.75
2017-08-26T11:18:16.035Z,213.75
2017-08-26T11:19:15.936Z,219.38
2017-08-26T11:20:15.937Z,225.00
2017-08-26T11:21:15.942Z,219.38
2017-08-26T11:22:15.940Z,225.00
2017-08-26T11:23:15.944Z,225.00
2017-08-26T11:24:16.043Z,230.63
2017-08-26T11:25:15.947Z,230.63
2017-08-26T11:26:15.948Z,196.88
2017-08-26T11:27:15.954Z,219.38
2017-08-26T11:28:15.952Z,191.25
2017-08-26T11:29:15.954Z,191.25
2017-08-26T11:30:16.054Z,174.38
2017-08-26T11:31:15.959Z,163.13
2017-08-26T11:32:15.960Z,157.50
2017-08-26T11:33:15.963Z,151.88
2017-08-26T11:34:15.963Z,151.88
2017-08-26T11:35:15.965Z,151.88
2017-08-26T11:36:16.066Z,151.88
2017-08-26T11:37:15.981Z,146.25
2017-08-26T11:38:15.971Z,140.63
2017-08-26T11:39:15.972Z,140.63
2017-08-26T11:40:15.974Z,140.63
2017-08-26T11:41:15.975Z,140.63
2017-08-26T11:42:16.076Z,140.63
2017-08-26T11:43:15.980Z,140.63
2017-08-26T11:44:15.981Z,140.63
2017-08-26T11:45:15.983Z,146.25
2017-08-26T11:46:15.984Z,146.25
2017-08-26T11:47:15.988Z,163.13
2017-08-26T11:48:16.087Z,157.50
2017-08-26T11:49:15.990Z,146.25
2017-08-26T11:50:15.993Z,168.75
2017-08-26T11:51:15.995Z,174.38
2017-08-26T11:52:16.000Z,174.38
2017-08-26T11:53:15.999Z,168.75
2017-08-26T11:54:16.301Z,163.13
2017-08-26T11:55:16.004Z,157.50
2017-08-26T11:56:16.005Z,151.88
2017-08-26T11:57:16.009Z,146.25
2017-08-26T11:58:16.011Z,146.25
2017-08-26T11:59:16.010Z,140.63
2017-08-26T12:00:16.112Z,140.63
2017-08-26T12:01:16.014Z,140.63
2017-08-26T12:02:16.018Z,135.00
2017-08-26T12:03:16.021Z,135.00
2017-08-26T12:04:16.023Z,135.00
2017-08-26T12:05:16.025Z,135.00
2017-08-26T12:06:16.128Z,135.00
2017-08-26T12:07:16.035Z,135.00
2017-08-26T12:08:16.031Z,135.00
2017-08-26T12:09:16.033Z,135.00
2017-08-26T12:10:16.042Z,135.00
2017-08-26T12:11:16.039Z,135.00
2017-08-26T12:12:16.137Z,129.38
2017-08-26T12:13:16.041Z,129.38
2017-08-26T12:14:16.042Z,129.38
2017-08-26T12:15:16.045Z,129.38
2017-08-26T12:16:16.045Z,129.38
2017-08-26T12:17:16.047Z,129.38
2017-08-26T12:18:16.150Z,129.38
2017-08-26T12:19:16.051Z,129.38
2017-08-26T12:20:16.051Z,129.38
2017-08-26T12:21:16.052Z,129.38
2017-08-26T12:22:16.057Z,129.38
2017-08-26T12:23:16.057Z,129.38
2017-08-26T12:24:16.159Z,129.38
2017-08-26T12:25:16.061Z,123.75
2017-08-26T12:26:16.067Z,129.38
2017-08-26T12:27:16.063Z,123.75
2017-08-26T12:28:16.065Z,123.75
2017-08-26T12:29:16.066Z,123.75
2017-08-26T12:30:16.167Z,123.75
2017-08-26T12:31:16.173Z,123.75
2017-08-26T12:32:16.070Z,123.75
2017-08-26T12:33:16.073Z,123.75
2017-08-26T12:34:16.075Z,123.75
2017-08-26T12:35:16.077Z,123.75
2017-08-26T12:36:16.078Z,123.75
2017-08-26T12:37:16.178Z,123.75
2017-08-26T12:38:16.084Z,123.75
2017-08-26T12:39:16.084Z,123.75
2017-08-26T12:40:16.085Z,123.75
2017-08-26T12:41:16.086Z,123.75
2017-08-26T12:42:16.088Z,123.75
2017-08-26T12:43:16.192Z,123.75
2017-08-26T12:44:16.093Z,123.75
2017-08-26T12:45:16.131Z,123.75
2017-08-26T12:46:16.094Z,123.75
2017-08-26T12:47:16.098Z,123.75
2017-08-26T12:48:16.108Z,123.75
2017-08-26T12:49:16.200Z,123.75
2017-08-26T12:50:16.101Z,123.75
2017-08-26T12:51:16.104Z,123.75
2017-08-26T12:52:16.105Z,123.75
2017-08-26T12:53:16.104Z,123.75
2017-08-26T12:54:16.109Z,123.75
2017-08-26T12:55:16.359Z,123.75
2017-08-26T12:56:16.110Z,123.75
2017-08-26T12:57:16.112Z,123.75
2017-08-26T12:58:16.112Z,123.75
2017-08-26T12:59:16.114Z,123.75
2017-08-26T13:00:16.116Z,123.75
2017-08-26T13:01:16.218Z,123.75
2017-08-26T13:02:16.120Z,123.75
2017-08-26T13:03:16.120Z,118.13
2017-08-26T13:04:16.135Z,118.13
2017-08-26T13:05:16.124Z,118.13
2017-08-26T13:06:16.125Z,118.13
2017-08-26T13:07:16.226Z,118.13
2017-08-26T13:08:16.128Z,118.13
2017-08-26T13:09:16.130Z,118.13
2017-08-26T13:10:16.137Z,118.13
2017-08-26T13:11:16.134Z,118.13
2017-08-26T13:12:16.133Z,112.50
2017-08-26T13:13:16.238Z,118.13
2017-08-26T13:14:16.138Z,118.13
2017-08-26T13:15:16.147Z,123.75
2017-08-26T13:16:16.140Z,118.13
2017-08-26T13:17:16.143Z,118.13
2017-08-26T13:18:16.145Z,118.13
2017-08-26T13:19:16.247Z,118.13
2017-08-26T13:20:16.147Z,118.13
2017-08-26T13:21:16.150Z,112.50
2017-08-26T13:22:16.152Z,112.50
2017-08-26T13:23:16.153Z,118.13
2017-08-26T13:24:16.153Z,118.13
2017-08-26T13:25:16.258Z,118.13
2017-08-26T13:26:16.159Z,118.13
2017-08-26T13:27:16.167Z,118.13
2017-08-26T13:28:16.161Z,118.13
2017-08-26T13:29:16.165Z,118.13
2017-08-26T13:30:16.166Z,118.13
2017-08-26T13:31:16.268Z,118.13
2017-08-26T13:32:16.170Z,118.13
2017-08-26T13:33:16.173Z,112.50
2017-08-26T13:34:16.175Z,112.50
2017-08-26T13:35:16.176Z,112.50
2017-08-26T13:36:16.177Z,112.50
2017-08-26T13:37:16.281Z,118.13
2017-08-26T13:38:16.183Z,118.13
2017-08-26T13:39:16.187Z,118.13
2017-08-26T13:40:16.186Z,118.13
2017-08-26T13:41:16.189Z,118.13
2017-08-26T13:42:16.190Z,118.13
2017-08-26T13:43:16.293Z,118.13
2017-08-26T13:44:16.194Z,112.50
2017-08-26T13:45:16.197Z,112.50
2017-08-26T13:46:16.199Z,90.00
2017-08-26T13:47:16.202Z,106.88
2017-08-26T13:48:16.204Z,112.50
2017-08-26T13:49:16.306Z,112.50
2017-08-26T13:50:16.209Z,112.50
2017-08-26T13:51:16.212Z,112.50
2017-08-26T13:52:16.214Z,112.50
2017-08-26T13:53:16.218Z,112.50
2017-08-26T13:54:16.219Z,112.50
2017-08-26T13:55:16.322Z,112.50
2017-08-26T13:56:16.224Z,112.50
2017-08-26T13:57:16.226Z,112.50
2017-08-26T13:58:16.228Z,112.50
2017-08-26T13:59:16.232Z,112.50
2017-08-26T14:00:16.234Z,112.50
2017-08-26T14:01:16.337Z,118.13
2017-08-26T14:02:16.239Z,112.50
2017-08-26T14:03:16.241Z,101.25
2017-08-26T14:04:16.244Z,84.38
2017-08-26T14:05:16.248Z,78.75
2017-08-26T14:06:16.250Z,73.13
2017-08-26T14:07:16.353Z,84.38
2017-08-26T14:08:16.256Z,84.38
2017-08-26T14:09:16.260Z,90.00
2017-08-26T14:10:16.261Z,78.75
2017-08-26T14:11:16.264Z,73.13
2017-08-26T14:12:16.267Z,78.75
2017-08-26T14:13:16.518Z,78.75
2017-08-26T14:14:16.272Z,84.38
2017-08-26T14:15:16.274Z,84.38
2017-08-26T14:16:16.275Z,90.00
2017-08-26T14:17:16.279Z,101.25
2017-08-26T14:18:16.280Z,90.00
2017-08-26T14:19:16.384Z,112.50
2017-08-26T14:20:16.284Z,112.50
2017-08-26T14:21:16.287Z,106.88
2017-08-26T14:22:16.292Z,106.88
2017-08-26T14:23:16.293Z,95.63
2017-08-26T14:24:16.294Z,84.38
2017-08-26T14:25:16.398Z,95.63
2017-08-26T14:26:16.301Z,101.25
2017-08-26T14:27:16.303Z,101.25
2017-08-26T14:28:16.306Z,90.00
2017-08-26T14:29:16.308Z,95.63
2017-08-26T14:30:16.310Z,95.63
2017-08-26T14:31:16.412Z,78.75
2017-08-26T14:32:16.315Z,95.63
2017-08-26T14:33:16.316Z,95.63
2017-08-26T14:34:16.319Z,73.13
2017-08-26T14:35:16.320Z,67.50
2017-08-26T14:36:16.323Z,67.50
2017-08-26T14:37:16.425Z,61.88
2017-08-26T14:38:16.328Z,67.50
2017-08-26T14:39:16.329Z,112.50
2017-08-26T14:40:16.331Z,112.50
2017-08-26T14:41:16.332Z,112.50
2017-08-26T14:42:16.334Z,95.63
2017-08-26T14:43:16.437Z,106.88
2017-08-26T14:44:16.338Z,95.63
2017-08-26T14:45:16.340Z,95.63
2017-08-26T14:46:16.343Z,95.63
2017-08-26T14:47:16.344Z,95.63
2017-08-26T14:48:16.346Z,101.25
2017-08-26T14:49:16.448Z,95.63
2017-08-26T14:50:16.350Z,90.00
2017-08-26T14:51:16.353Z,101.25
2017-08-26T14:52:16.354Z,90.00
2017-08-26T14:53:16.356Z,84.38
2017-08-26T14:54:16.357Z,90.00
2017-08-26T14:55:16.662Z,95.63
2017-08-26T14:56:16.364Z,101.25
2017-08-26T14:57:16.363Z,101.25
2017-08-26T14:58:16.366Z,106.88
2017-08-26T14:59:16.368Z,112.50
2017-08-26T15:00:16.369Z,106.88
2017-08-26T15:01:16.472Z,112.50
2017-08-26T15:02:16.374Z,112.50
2017-08-26T15:03:16.376Z,95.63
2017-08-26T15:04:16.377Z,95.63
2017-08-26T15:05:16.379Z,90.00
2017-08-26T15:06:16.381Z,84.38
2017-08-26T15:07:16.484Z,84.38
2017-08-26T15:08:16.385Z,84.38
2017-08-26T15:09:16.387Z,84.38
2017-08-26T15:10:16.388Z,78.75
2017-08-26T15:11:16.393Z,78.75
2017-08-26T15:12:16.391Z,73.13
2017-08-26T15:13:16.494Z,78.75
2017-08-26T15:14:16.396Z,73.13
2017-08-26T15:15:16.397Z,67.50
2017-08-26T15:16:16.401Z,67.50
2017-08-26T15:17:16.400Z,61.88
2017-08-26T15:18:16.402Z,56.25
2017-08-26T15:19:16.504Z,56.25
2017-08-26T15:20:16.405Z,56.25
2017-08-26T15:21:16.406Z,50.63
2017-08-26T15:22:16.514Z,50.63
2017-08-26T15:23:16.409Z,45.00
2017-08-26T15:24:16.410Z,45.00
2017-08-26T15:25:16.513Z,39.38
2017-08-26T15:26:16.414Z,39.38
2017-08-26T15:27:16.414Z,39.38
2017-08-26T15:28:16.414Z,33.75
2017-08-26T15:29:16.417Z,28.13
2017-08-26T15:30:16.419Z,28.13
2017-08-26T15:31:16.521Z,22.50
2017-08-26T15:32:16.422Z,22.50
2017-08-26T15:33:16.425Z,16.88
2017-08-26T15:34:16.424Z,16.88
2017-08-26T15:35:16.426Z,16.88
2017-08-26T15:36:16.427Z,11.25
2017-08-26T15:37:16.529Z,11.25
2017-08-26T15:38:16.530Z,11.25
2017-08-26T15:39:16.516Z,11.25
2017-08-26T15:40:16.431Z,11.25
2017-08-26T15:41:16.436Z,5.63
2017-08-26T15:42:16.440Z,5.63
2017-08-26T15:43:16.435Z,5.63
2017-08-26T15:44:16.535Z,5.63
2017-08-26T15:45:16.437Z,5.63
2017-08-26T15:46:16.438Z,5.63
2017-08-26T15:47:16.440Z,5.63
2017-08-26T15:48:16.437Z,5.63
2017-08-26T15:49:16.741Z,5.63
2017-08-26T15:50:16.542Z,5.63
2017-08-26T15:51:16.442Z,5.63
2017-08-26T15:52:16.444Z,5.63
2017-08-26T15:53:16.443Z,5.63
2017-08-26T15:54:16.443Z,5.63
2017-08-26T15:55:16.446Z,5.63
2017-08-26T15:56:16.549Z,5.63
2017-08-26T15:57:16.445Z,5.63
2017-08-26T15:58:16.446Z,5.63
2017-08-26T15:59:16.447Z,0.00
2017-08-26T16:00:16.446Z,0.00
2017-08-26T16:01:16.448Z,0.00
2017-08-26T16:02:16.548Z,0.00
2017-08-26T16:03:16.448Z,0.00
2017-08-26T16:04:16.447Z,0.00
2017-08-26T16:05:16.448Z,0.00
2017-08-26T16:06:16.449Z,0.00
2017-08-26T16:07:16.447Z,0.00
2017-08-26T16:08:16.551Z,0.00
2017-08-26T16:09:16.446Z,0.00
2017-08-26T16:10:16.447Z,0.00
2017-08-26T16:11:16.447Z,0.00
2017-08-26T16:12:16.445Z,0.00
2017-08-26T16:13:16.445Z,0.00
2017-08-26T16:14:16.543Z,0.00
2017-08-26T16:15:16.442Z,0.00
2017-08-26T16:16:16.440Z,0.00
2017-08-26T16:17:16.438Z,0.00
2017-08-26T16:18:16.437Z,0.00
2017-08-26T16:19:16.435Z,0.00
2017-08-26T16:20:16.535Z,0.00
2017-08-26T16:21:16.434Z,0.00
2017-08-26T16:22:16.429Z,0.00
2017-08-26T16:23:16.429Z,0.00
2017-08-26T16:24:16.428Z,0.00
2017-08-26T16:25:16.442Z,0.00
2017-08-26T16:26:16.523Z,0.00
2017-08-26T16:27:16.422Z,0.00
2017-08-26T16:28:16.418Z,0.00
2017-08-26T16:29:16.416Z,0.00
2017-08-26T16:30:16.414Z,0.00
2017-08-26T16:31:16.413Z,0.00
2017-08-26T16:32:16.508Z,0.00
2017-08-26T16:33:16.407Z,0.00
2017-08-26T16:34:16.403Z,0.00
2017-08-26T16:35:16.418Z,0.00
2017-08-26T16:36:16.397Z,0.00
2017-08-26T16:37:16.394Z,0.00
2017-08-26T16:38:16.641Z,0.00
2017-08-26T16:39:16.389Z,0.00
2017-08-26T16:40:16.385Z,0.00
2017-08-26T16:41:16.382Z,0.00
2017-08-26T16:42:16.379Z,0.00
2017-08-26T16:43:16.376Z,0.00
2017-08-26T16:44:16.472Z,0.00
2017-08-26T16:45:16.368Z,0.00
2017-08-26T16:46:16.366Z,0.00
2017-08-26T16:47:16.362Z,0.00
2017-08-26T16:48:16.358Z,0.00
2017-08-26T16:49:16.356Z,0.00
2017-08-26T16:50:16.453Z,0.00
2017-08-26T16:51:16.349Z,0.00
2017-08-26T16:52:16.346Z,0.00
2017-08-26T16:53:16.341Z,0.00
2017-08-26T16:54:16.337Z,0.00
2017-08-26T16:55:16.336Z,0.00
2017-08-26T16:56:16.579Z,0.00
2017-08-26T16:57:16.326Z,0.00
2017-08-26T16:58:16.322Z,0.00
2017-08-26T16:59:16.318Z,0.00
2017-08-26T17:00:16.315Z,0.00
2017-08-26T17:01:16.309Z,0.00
2017-08-26T17:02:16.407Z,0.00
2017-08-26T17:03:16.302Z,0.00
2017-08-26T17:04:16.298Z,0.00
2017-08-26T17:05:16.293Z,0.00
2017-08-26T17:06:16.290Z,0.00
2017-08-26T17:07:16.286Z,0.00
2017-08-26T17:08:16.381Z,0.00
2017-08-26T17:09:16.528Z,0.00
2017-08-26T17:10:16.273Z,0.00
2017-08-26T17:11:16.268Z,0.00
2017-08-26T17:12:16.264Z,5.63
2017-08-26T17:13:16.261Z,5.63
2017-08-26T17:14:16.254Z,5.63
2017-08-26T17:15:16.351Z,5.63
2017-08-26T17:16:16.246Z,5.63
2017-08-26T17:17:16.241Z,5.63
2017-08-26T17:18:16.236Z,5.63
2017-08-26T17:19:16.232Z,5.63
2017-08-26T17:20:16.231Z,5.63
2017-08-26T17:21:16.322Z,5.63
2017-08-26T17:22:16.218Z,5.63
2017-08-26T17:23:16.212Z,5.63